createdAt,value
2023-05-13T00:02:50.164Z,100.00
2023-05-13T00:05:53.063Z,100.00
2023-05-13T00:08:55.584Z,100.00
2023-05-13T00:11:58.350Z,100.00
2023-05-13T00:15:00.822Z,100.00
2023-05-13T00:18:03.711Z,100.00
2023-05-13T00:21:06.490Z,100.00
2023-05-13T00:24:09.193Z,100.00
2023-05-13T00:27:11.714Z,100.00
2023-05-13T00:30:14.466Z,100.00
2023-05-13T00:33:17.339Z,100.00
2023-05-13T00:36:20.053Z,100.00
2023-05-13T00:39:23.077Z,100.00
2023-05-13T00:42:25.909Z,100.00
2023-05-13T00:45:28.784Z,100.00
2023-05-13T00:48:32.503Z,100.00
2023-05-13T00:51:35.210Z,100.00
2023-05-13T00:54:37.938Z,100.00
2023-05-13T00:57:40.563Z,100.00
2023-05-13T01:01:05.663Z,100.00
2023-05-13T01:04:17.858Z,100.00
2023-05-13T01:07:35.963Z,100.00
2023-05-13T01:10:43.389Z,100.00
2023-05-13T01:13:49.483Z,100.00
2023-05-13T01:17:14.500Z,100.00
2023-05-13T01:20:23.180Z,100.00
2023-05-13T01:23:26.259Z,100.00
2023-05-13T01:26:30.350Z,100.00
2023-05-13T01:29:33.743Z,100.00
2023-05-13T01:32:38.393Z,100.00
2023-05-13T01:35:41.238Z,100.00
2023-05-13T01:38:45.191Z,100.00
2023-05-13T01:41:47.702Z,100.00
2023-05-13T01:44:51.841Z,100.00
2023-05-13T01:47:54.328Z,100.00
2023-05-13T01:50:57.970Z,100.00
2023-05-13T01:54:01.304Z,100.00
2023-05-13T01:57:04.537Z,100.00
2023-05-13T02:00:09.426Z,100.00
2023-05-13T02:06:36.797Z,100.00
2023-05-13T02:09:39.288Z,100.00
2023-05-13T02:12:42.069Z,100.00
2023-05-13T02:15:44.547Z,100.00
2023-05-13T02:18:47.345Z,100.00
2023-05-13T02:21:49.915Z,100.00
2023-05-13T02:24:52.778Z,100.00
2023-05-13T02:27:55.532Z,100.00
2023-05-13T02:31:01.115Z,100.00
2023-05-13T02:34:03.770Z,100.00
2023-05-13T02:37:08.213Z,100.00
2023-05-13T02:40:12.125Z,100.00
2023-05-13T02:43:15.266Z,100.00
2023-05-13T02:46:18.374Z,100.00
2023-05-13T02:49:21.205Z,100.00
2023-05-13T02:52:24.245Z,100.00
2023-05-13T02:55:27.203Z,100.00
2023-05-13T02:58:29.730Z,100.00
2023-05-13T03:01:32.537Z,100.00
2023-05-13T03:04:35.025Z,100.00
2023-05-13T03:07:37.791Z,100.00
2023-05-13T03:10:40.593Z,100.00
2023-05-13T03:16:49.501Z,100.00
2023-05-13T03:19:52.895Z,100.00
2023-05-13T03:22:55.313Z,100.00
2023-05-13T03:25:58.152Z,100.00
2023-05-13T03:29:01.978Z,100.00
2023-05-13T03:32:06.535Z,100.00
2023-05-13T03:35:09.343Z,100.00
2023-05-13T03:38:12.511Z,100.00
2023-05-13T03:41:17.581Z,100.00
2023-05-13T03:44:22.085Z,100.00
2023-05-13T03:47:24.852Z,100.00
2023-05-13T03:50:27.829Z,100.00
2023-05-13T03:53:30.487Z,100.00
2023-05-13T03:56:33.365Z,100.00
2023-05-13T03:59:36.828Z,100.00
2023-05-13T04:02:39.638Z,100.00
2023-05-13T04:05:42.627Z,100.00
2023-05-13T04:08:46.812Z,100.00
2023-05-13T04:11:51.556Z,100.00
2023-05-13T04:14:53.991Z,100.00
2023-05-13T04:17:56.810Z,100.00
2023-05-13T04:20:59.272Z,100.00
2023-05-13T04:24:04.409Z,100.00
2023-05-13T04:27:06.915Z,100.00
2023-05-13T04:33:16.667Z,100.00
2023-05-13T04:36:20.178Z,100.00
2023-05-13T04:39:22.766Z,100.00
2023-05-13T04:42:25.686Z,100.00
2023-05-13T04:45:28.314Z,100.00
2023-05-13T04:48:31.668Z,100.00
2023-05-13T04:51:34.792Z,100.00
2023-05-13T04:54:39.482Z,100.00
2023-05-13T04:57:45.409Z,100.00
2023-05-13T05:00:48.192Z,100.00
2023-05-13T05:03:50.681Z,100.00
2023-05-13T05:06:54.038Z,100.00
2023-05-13T05:09:59.240Z,100.00
2023-05-13T05:13:02.783Z,100.00
2023-05-13T05:16:05.485Z,100.00
2023-05-13T05:19:08.746Z,100.00
2023-05-13T05:22:12.492Z,100.00
2023-05-13T05:25:15.401Z,100.00
2023-05-13T05:28:17.960Z,100.00
2023-05-13T05:31:21.477Z,100.00
2023-05-13T05:34:24.022Z,100.00
2023-05-13T05:37:26.880Z,100.00
2023-05-13T05:40:32.802Z,100.00
2023-05-13T05:43:35.731Z,100.00
2023-05-13T05:46:38.206Z,100.00
2023-05-13T05:49:42.399Z,100.00
2023-05-13T05:52:45.097Z,100.00
2023-05-13T05:55:48.356Z,100.00
2023-05-13T05:58:51.155Z,100.00
2023-05-13T06:01:55.528Z,100.00
2023-05-13T06:04:59.109Z,100.00
2023-05-13T06:08:01.633Z,100.00
2023-05-13T06:11:05.453Z,100.00
2023-05-13T06:14:08.105Z,100.00
2023-05-13T06:17:10.823Z,100.00
2023-05-13T06:20:13.392Z,100.00
2023-05-13T06:23:16.960Z,100.00
2023-05-13T06:26:19.698Z,100.00
2023-05-13T06:29:22.494Z,100.00
2023-05-13T06:32:24.958Z,100.00
2023-05-13T06:35:27.742Z,100.00
2023-05-13T06:38:30.386Z,100.00
2023-05-13T06:41:34.447Z,100.00
2023-05-13T06:44:39.852Z,100.00
2023-05-13T06:47:42.646Z,100.00
2023-05-13T06:53:50.568Z,100.00
2023-05-13T06:56:53.835Z,100.00
2023-05-13T06:59:56.640Z,100.00
2023-05-13T07:02:59.149Z,100.00
2023-05-13T07:06:01.920Z,100.00
2023-05-13T07:09:08.278Z,100.00
2023-05-13T07:12:11.330Z,100.00
2023-05-13T07:15:13.775Z,100.00
2023-05-13T07:18:16.574Z,100.00
2023-05-13T07:21:19.108Z,100.00
2023-05-13T07:24:22.232Z,100.00
2023-05-13T07:27:24.670Z,100.00
2023-05-13T07:30:28.308Z,100.00
2023-05-13T07:33:31.446Z,100.00
2023-05-13T07:36:34.212Z,100.00
2023-05-13T07:39:36.742Z,100.00
2023-05-13T07:42:40.374Z,100.00
2023-05-13T07:45:42.861Z,100.00
2023-05-13T07:48:45.916Z,100.00
2023-05-13T07:51:48.467Z,100.00
2023-05-13T07:54:51.207Z,100.00
2023-05-13T07:57:53.718Z,100.00
2023-05-13T08:00:56.588Z,100.00
2023-05-13T08:03:59.439Z,100.00
2023-05-13T08:07:02.819Z,100.00
2023-05-13T08:10:06.451Z,100.00
2023-05-13T08:13:08.920Z,100.00
2023-05-13T08:16:11.822Z,100.00
2023-05-13T08:19:15.189Z,100.00
2023-05-13T08:22:17.973Z,100.00
2023-05-13T08:25:20.712Z,100.00
2023-05-13T08:28:23.671Z,100.00
2023-05-13T08:31:26.711Z,100.00
2023-05-13T08:34:29.560Z,100.00
2023-05-13T08:37:31.984Z,100.00
2023-05-13T08:40:34.743Z,100.00
2023-05-13T08:43:38.583Z,100.00
2023-05-13T08:46:45.530Z,100.00
2023-05-13T08:49:48.442Z,100.00
2023-05-13T08:52:53.346Z,100.00
2023-05-13T08:55:56.482Z,100.00
2023-05-13T08:58:59.231Z,100.00
2023-05-13T09:02:03.811Z,100.00
2023-05-13T09:05:08.668Z,100.00
2023-05-13T09:08:11.416Z,100.00
2023-05-13T09:11:14.321Z,100.00
2023-05-13T09:14:19.491Z,100.00
2023-05-13T09:17:22.303Z,100.00
2023-05-13T09:20:27.450Z,100.00
2023-05-13T09:23:30.154Z,100.00
2023-05-13T09:26:32.613Z,99.89
2023-05-13T09:29:35.381Z,98.72
2023-05-13T09:32:39.255Z,98.79
2023-05-13T09:36:00.210Z,96.96
2023-05-13T09:39:05.876Z,96.88
2023-05-13T09:42:20.457Z,97.01
2023-05-13T09:45:23.892Z,95.50
2023-05-13T09:48:29.014Z,95.59
2023-05-13T09:51:31.590Z,95.04
2023-05-13T09:54:34.664Z,96.05
2023-05-13T09:57:38.062Z,95.52
2023-05-13T10:00:42.091Z,96.23
2023-05-13T10:03:45.361Z,97.15
2023-05-13T10:06:48.157Z,97.32
2023-05-13T10:09:57.964Z,96.40
2023-05-13T10:13:06.842Z,95.75
2023-05-13T10:16:09.730Z,95.07
2023-05-13T10:19:12.847Z,93.10
2023-05-13T10:22:15.786Z,90.44
2023-05-13T10:25:18.810Z,91.85
2023-05-13T10:28:21.712Z,91.54
2023-05-13T10:31:24.656Z,87.03
2023-05-13T10:34:27.843Z,85.54
2023-05-13T10:37:52.175Z,85.86
2023-05-13T10:41:26.814Z,87.84
2023-05-13T10:44:30.109Z,90.26
2023-05-13T10:47:34.339Z,89.05
2023-05-13T10:50:39.125Z,90.23
2023-05-13T10:53:55.932Z,91.19
2023-05-13T10:56:59.243Z,92.95
2023-05-13T11:00:19.123Z,91.67
2023-05-13T11:03:21.863Z,92.02
2023-05-13T11:06:29.373Z,91.85
2023-05-13T11:09:32.132Z,89.13
2023-05-13T11:12:34.884Z,90.24
2023-05-13T11:15:53.747Z,89.70
2023-05-13T11:18:57.454Z,89.91
2023-05-13T11:22:20.121Z,91.98
2023-05-13T11:25:27.074Z,90.25
2023-05-13T11:29:04.428Z,89.73
2023-05-13T11:32:07.326Z,90.83
2023-05-13T11:35:09.910Z,89.69
2023-05-13T11:38:23.362Z,90.31
2023-05-13T11:41:26.007Z,90.17
2023-05-13T11:44:28.742Z,90.86
2023-05-13T11:47:31.265Z,90.70
2023-05-13T11:50:34.034Z,88.53
2023-05-13T11:53:36.523Z,87.79
2023-05-13T11:56:42.973Z,85.68
2023-05-13T12:00:01.578Z,87.01
2023-05-13T12:03:12.081Z,87.26
2023-05-13T12:06:15.909Z,87.00
2023-05-13T12:09:22.738Z,86.87
2023-05-13T12:12:26.988Z,88.00
2023-05-13T12:15:30.792Z,87.68
2023-05-13T12:18:34.583Z,88.34
2023-05-13T12:21:38.328Z,88.76
2023-05-13T12:24:41.097Z,89.16
2023-05-13T12:27:44.570Z,88.85
2023-05-13T12:30:54.505Z,87.88
2023-05-13T12:33:58.338Z,86.92
2023-05-13T12:37:27.790Z,85.15
2023-05-13T12:40:33.527Z,87.22
2023-05-13T12:43:36.679Z,87.00
2023-05-13T12:46:40.286Z,87.55
2023-05-13T12:49:53.944Z,87.34
2023-05-13T12:52:57.826Z,86.07
2023-05-13T12:56:00.911Z,86.51
2023-05-13T12:59:03.437Z,86.18
2023-05-13T13:02:06.206Z,85.39
2023-05-13T13:05:09.024Z,85.28
2023-05-13T13:08:11.723Z,84.58
2023-05-13T13:11:18.935Z,84.21
2023-05-13T13:14:23.824Z,83.82
2023-05-13T13:17:26.265Z,84.46
2023-05-13T13:20:28.996Z,85.82
2023-05-13T13:23:31.479Z,83.69
2023-05-13T13:26:34.183Z,83.55
2023-05-13T13:29:36.635Z,84.54
2023-05-13T13:32:39.424Z,82.03
2023-05-13T13:35:45.944Z,82.68
2023-05-13T13:38:48.692Z,82.01
2023-05-13T13:41:51.254Z,81.88
2023-05-13T13:44:54.047Z,82.77
2023-05-13T13:47:56.574Z,83.72
2023-05-13T13:50:59.665Z,82.41
2023-05-13T13:54:08.692Z,82.58
2023-05-13T13:57:11.452Z,83.37
2023-05-13T14:00:15.268Z,84.82
2023-05-13T14:03:18.072Z,84.16
2023-05-13T14:06:20.605Z,84.16
2023-05-13T14:09:23.321Z,85.35
2023-05-13T14:12:26.372Z,85.19
2023-05-13T14:15:30.783Z,85.44
2023-05-13T14:18:33.226Z,85.74
2023-05-13T14:21:36.072Z,86.11
2023-05-13T14:24:38.508Z,86.94
2023-05-13T14:27:41.325Z,87.06
2023-05-13T14:30:43.794Z,87.94
2023-05-13T14:33:46.531Z,87.89
2023-05-13T14:36:49.096Z,88.69
2023-05-13T14:39:51.881Z,89.08
2023-05-13T14:42:54.435Z,88.32
2023-05-13T14:45:57.236Z,88.99
2023-05-13T14:48:59.676Z,88.58
2023-05-13T14:52:02.483Z,89.01
2023-05-13T14:55:05.184Z,88.77
2023-05-13T14:58:09.189Z,88.77
2023-05-13T15:01:11.788Z,89.07
2023-05-13T15:04:14.672Z,89.52
2023-05-13T15:07:17.127Z,89.75
2023-05-13T15:10:20.111Z,90.25
2023-05-13T15:13:24.730Z,91.21
2023-05-13T15:16:27.616Z,91.43
2023-05-13T15:19:30.717Z,93.16
2023-05-13T15:22:34.318Z,97.11
2023-05-13T15:25:37.011Z,98.67
2023-05-13T15:28:39.784Z,99.85
2023-05-13T15:31:42.249Z,100.00
2023-05-13T15:34:45.003Z,100.00
2023-05-13T15:37:47.428Z,100.00
2023-05-13T15:40:50.530Z,100.00
2023-05-13T15:43:53.085Z,100.00
2023-05-13T15:46:56.052Z,100.00
2023-05-13T15:49:58.511Z,100.00
2023-05-13T15:53:01.268Z,100.00
2023-05-13T15:56:03.776Z,100.00
2023-05-13T15:59:06.573Z,100.00
2023-05-13T16:02:09.062Z,100.00
2023-05-13T16:05:19.212Z,100.00
2023-05-13T16:08:21.677Z,100.00
2023-05-13T16:11:24.759Z,100.00
2023-05-13T16:14:27.400Z,100.00
2023-05-13T16:17:30.413Z,100.00
2023-05-13T16:20:32.976Z,100.00
2023-05-13T16:23:35.897Z,100.00
2023-05-13T16:26:38.650Z,100.00
2023-05-13T16:29:42.047Z,100.00
2023-05-13T16:32:47.612Z,100.00
2023-05-13T16:35:50.375Z,100.00
2023-05-13T16:38:52.854Z,100.00
2023-05-13T16:41:55.619Z,100.00
2023-05-13T16:44:58.137Z,100.00
2023-05-13T16:48:01.012Z,100.00
2023-05-13T16:51:03.768Z,100.00
2023-05-13T16:54:06.566Z,100.00
2023-05-13T16:57:09.024Z,100.00
2023-05-13T17:00:12.168Z,100.00
2023-05-13T17:03:14.828Z,100.00
2023-05-13T17:06:17.778Z,100.00
2023-05-13T17:09:20.319Z,100.00
2023-05-13T17:12:23.217Z,100.00
2023-05-13T17:15:26.294Z,100.00
2023-05-13T17:18:29.127Z,100.00
2023-05-13T17:21:31.684Z,100.00
2023-05-13T17:24:34.416Z,100.00
2023-05-13T17:27:36.954Z,100.00
2023-05-13T17:30:39.725Z,100.00
2023-05-13T17:33:42.253Z,100.00
2023-05-13T17:36:44.962Z,100.00
2023-05-13T17:39:47.434Z,100.00
2023-05-13T17:42:52.105Z,100.00
2023-05-13T17:45:55.386Z,100.00
2023-05-13T17:48:58.252Z,100.00
2023-05-13T17:52:00.812Z,100.00
2023-05-13T17:55:05.229Z,100.00
2023-05-13T17:58:07.700Z,100.00
2023-05-13T18:01:10.893Z,100.00
2023-05-13T18:04:13.748Z,100.00
2023-05-13T18:07:16.456Z,100.00
2023-05-13T18:10:19.413Z,100.00
2023-05-13T18:13:21.844Z,100.00
2023-05-13T18:16:24.737Z,100.00
2023-05-13T18:19:30.174Z,100.00
2023-05-13T18:22:32.938Z,100.00
2023-05-13T18:25:42.406Z,100.00
2023-05-13T18:28:51.766Z,100.00
2023-05-13T18:31:54.253Z,100.00
2023-05-13T18:34:57.092Z,100.00
2023-05-13T18:37:59.575Z,100.00
2023-05-13T18:41:03.674Z,100.00
2023-05-13T18:44:06.144Z,100.00
2023-05-13T18:47:08.940Z,100.00
2023-05-13T18:50:11.522Z,100.00
2023-05-13T18:53:14.245Z,100.00
2023-05-13T18:56:16.729Z,100.00
2023-05-13T18:59:19.587Z,100.00
2023-05-13T19:02:22.195Z,100.00
2023-05-13T19:05:25.139Z,100.00
2023-05-13T19:08:27.674Z,100.00
2023-05-13T19:11:31.197Z,100.00
2023-05-13T19:14:33.694Z,100.00
2023-05-13T19:17:39.016Z,100.00
2023-05-13T19:20:43.625Z,100.00
2023-05-13T19:23:46.367Z,100.00
2023-05-13T19:26:48.848Z,100.00
2023-05-13T19:29:51.688Z,100.00
2023-05-13T19:32:54.171Z,100.00
2023-05-13T19:35:56.946Z,100.00
2023-05-13T19:38:59.487Z,100.00
2023-05-13T19:42:02.222Z,100.00
2023-05-13T19:45:08.021Z,100.00
2023-05-13T19:48:11.076Z,100.00
2023-05-13T19:51:13.582Z,100.00
2023-05-13T19:54:16.532Z,100.00
2023-05-13T19:57:18.946Z,100.00
2023-05-13T20:00:23.209Z,100.00
2023-05-13T20:03:26.282Z,100.00
2023-05-13T20:06:28.743Z,100.00
2023-05-13T20:09:31.542Z,100.00
2023-05-13T20:12:34.022Z,100.00
2023-05-13T20:15:36.905Z,100.00
2023-05-13T20:18:39.640Z,100.00
2023-05-13T20:21:42.392Z,100.00
2023-05-13T20:24:48.751Z,100.00
2023-05-13T20:27:51.599Z,100.00
2023-05-13T20:30:54.341Z,100.00
2023-05-13T20:33:57.646Z,100.00
2023-05-13T20:37:00.558Z,100.00
2023-05-13T20:40:04.492Z,100.00
2023-05-13T20:43:07.762Z,100.00
2023-05-13T20:46:14.824Z,100.00
2023-05-13T20:49:17.950Z,100.00
2023-05-13T20:52:21.813Z,100.00
2023-05-13T20:55:24.259Z,100.00
2023-05-13T20:58:27.042Z,100.00
2023-05-13T21:01:29.645Z,100.00
2023-05-13T21:04:32.471Z,100.00
2023-05-13T21:07:35.310Z,100.00
2023-05-13T21:10:38.114Z,100.00
2023-05-13T21:13:40.546Z,100.00
2023-05-13T21:16:43.435Z,100.00
2023-05-13T21:19:45.956Z,100.00
2023-05-13T21:22:48.710Z,100.00
2023-05-13T21:25:51.513Z,100.00
2023-05-13T21:28:54.267Z,100.00
2023-05-13T21:31:56.987Z,100.00
2023-05-13T21:34:59.734Z,100.00
2023-05-13T21:38:11.329Z,100.00
2023-05-13T21:41:14.666Z,100.00
2023-05-13T21:44:17.086Z,100.00
2023-05-13T21:47:19.846Z,100.00
2023-05-13T21:50:22.610Z,100.00
2023-05-13T21:53:25.902Z,100.00
2023-05-13T21:56:28.760Z,100.00
2023-05-13T21:59:31.455Z,100.00
2023-05-13T22:02:34.481Z,100.00
2023-05-13T22:05:43.611Z,100.00
2023-05-13T22:08:46.164Z,100.00
2023-05-13T22:11:48.954Z,100.00
2023-05-13T22:14:52.473Z,100.00
2023-05-13T22:17:55.318Z,100.00
2023-05-13T22:20:59.514Z,100.00
2023-05-13T22:24:02.393Z,100.00
2023-05-13T22:27:05.029Z,100.00
2023-05-13T22:30:08.287Z,100.00
2023-05-13T22:33:10.933Z,100.00
2023-05-13T22:36:13.926Z,100.00
2023-05-13T22:39:17.515Z,100.00
2023-05-13T22:42:20.226Z,100.00
2023-05-13T22:45:22.670Z,100.00
2023-05-13T22:48:25.433Z,100.00
2023-05-13T22:51:28.044Z,100.00
2023-05-13T22:54:31.242Z,100.00
2023-05-13T22:57:33.711Z,100.00
2023-05-13T23:00:36.402Z,100.00
2023-05-13T23:03:38.970Z,100.00
2023-05-13T23:06:41.842Z,100.00
2023-05-13T23:09:44.406Z,100.00
2023-05-13T23:12:47.155Z,100.00
2023-05-13T23:15:49.626Z,100.00
2023-05-13T23:18:52.466Z,100.00
2023-05-13T23:21:54.960Z,100.00
2023-05-13T23:24:57.687Z,100.00
2023-05-13T23:28:00.173Z,100.00
2023-05-13T23:31:02.939Z,100.00
2023-05-13T23:34:07.320Z,100.00
2023-05-13T23:37:10.068Z,100.00
2023-05-13T23:40:12.979Z,100.00
2023-05-13T23:43:15.807Z,100.00
2023-05-13T23:46:18.331Z,100.00
2023-05-13T23:49:21.131Z,100.00
2023-05-13T23:52:23.702Z,100.00
2023-05-13T23:55:26.480Z,100.00
2023-05-13T23:58:28.914Z,100.00
